createdAt,value
2023-01-29T00:00:12.747Z,80.54
2023-01-29T00:02:40.756Z,80.97
2023-01-29T00:05:26.131Z,80.90
2023-01-29T00:07:54.586Z,81.17
2023-01-29T00:10:23.695Z,80.80
2023-01-29T00:12:51.666Z,81.33
2023-01-29T00:15:20.630Z,80.94
2023-01-29T00:17:48.304Z,81.85
2023-01-29T00:20:16.657Z,82.06
2023-01-29T00:22:44.504Z,81.86
2023-01-29T00:25:12.551Z,81.41
2023-01-29T00:27:41.553Z,81.20
2023-01-29T00:30:13.145Z,81.43
2023-01-29T00:32:41.105Z,81.38
2023-01-29T00:35:10.187Z,81.50
2023-01-29T00:37:38.450Z,81.88
2023-01-29T00:40:07.536Z,82.08
2023-01-29T00:42:52.717Z,81.80
2023-01-29T00:45:21.896Z,82.19
2023-01-29T00:47:49.641Z,82.87
2023-01-29T00:50:17.748Z,82.25
2023-01-29T00:52:45.850Z,82.42
2023-01-29T00:55:13.736Z,82.78
2023-01-29T00:57:41.376Z,81.87
2023-01-29T01:00:12.089Z,82.09
2023-01-29T01:02:59.037Z,82.02
2023-01-29T01:05:26.788Z,82.32
2023-01-29T01:07:58.219Z,82.45
2023-01-29T01:10:27.188Z,82.80
2023-01-29T01:12:56.721Z,83.10
2023-01-29T01:15:25.697Z,82.54
2023-01-29T01:17:55.820Z,82.28
2023-01-29T01:20:23.897Z,82.55
2023-01-29T01:22:51.594Z,82.58
2023-01-29T01:25:19.427Z,82.78
2023-01-29T01:27:47.175Z,82.02
2023-01-29T01:30:17.664Z,82.79
2023-01-29T01:32:45.742Z,82.96
2023-01-29T01:35:14.892Z,82.72
2023-01-29T01:37:42.771Z,83.54
2023-01-29T01:40:18.241Z,82.75
2023-01-29T01:42:48.273Z,82.92
2023-01-29T01:45:20.905Z,83.18
2023-01-29T01:47:53.443Z,83.55
2023-01-29T01:50:27.909Z,83.75
2023-01-29T01:53:00.918Z,83.42
2023-01-29T01:55:31.183Z,83.64
2023-01-29T01:58:10.146Z,83.60
2023-01-29T02:00:38.130Z,84.19
2023-01-29T02:03:24.827Z,84.39
2023-01-29T02:06:12.820Z,84.71
2023-01-29T02:09:05.638Z,84.98
2023-01-29T02:11:33.310Z,85.31
2023-01-29T02:14:01.026Z,85.18
2023-01-29T02:16:28.818Z,85.56
2023-01-29T02:18:57.020Z,85.66
2023-01-29T02:21:51.608Z,84.90
2023-01-29T02:24:42.971Z,85.41
2023-01-29T02:27:15.017Z,85.82
2023-01-29T02:29:56.136Z,85.74
2023-01-29T02:32:31.590Z,85.71
2023-01-29T02:35:28.600Z,85.28
2023-01-29T02:38:02.784Z,85.99
2023-01-29T02:40:35.468Z,85.72
2023-01-29T02:43:14.181Z,86.03
2023-01-29T02:45:48.585Z,86.81
2023-01-29T02:48:20.630Z,86.75
2023-01-29T02:50:55.850Z,86.48
2023-01-29T02:53:28.555Z,86.90
2023-01-29T02:56:00.979Z,85.65
2023-01-29T02:58:34.114Z,85.91
2023-01-29T03:01:08.837Z,85.82
2023-01-29T03:03:41.640Z,85.70
2023-01-29T03:06:20.620Z,85.84
2023-01-29T03:08:54.317Z,86.13
2023-01-29T03:11:22.474Z,85.67
2023-01-29T03:13:54.397Z,85.89
2023-01-29T03:16:32.183Z,85.81
2023-01-29T03:22:32.767Z,86.13
2023-01-29T03:25:20.674Z,86.42
2023-01-29T03:28:10.889Z,86.35
2023-01-29T03:31:01.706Z,86.08
2023-01-29T03:33:33.614Z,86.65
2023-01-29T03:36:06.596Z,86.86
2023-01-29T03:38:34.382Z,86.59
2023-01-29T03:41:09.244Z,86.23
2023-01-29T03:43:46.192Z,86.56
2023-01-29T03:46:28.982Z,86.69
2023-01-29T03:49:04.115Z,87.10
2023-01-29T03:51:38.506Z,86.95
2023-01-29T03:54:14.445Z,86.96
2023-01-29T03:56:55.005Z,87.24
2023-01-29T03:59:34.665Z,86.87
2023-01-29T04:02:06.649Z,87.70
2023-01-29T04:04:38.354Z,87.26
2023-01-29T04:07:11.787Z,87.98
2023-01-29T04:09:46.809Z,87.93
2023-01-29T04:12:19.651Z,88.44
2023-01-29T04:14:50.553Z,88.39
2023-01-29T04:17:23.856Z,88.13
2023-01-29T04:19:54.604Z,87.96
2023-01-29T04:22:29.136Z,88.75
2023-01-29T04:25:02.352Z,88.05
2023-01-29T04:27:44.177Z,88.51
2023-01-29T04:30:23.849Z,88.12
2023-01-29T04:33:03.957Z,89.17
2023-01-29T04:35:45.021Z,90.05
2023-01-29T04:38:18.641Z,89.46
2023-01-29T04:40:55.335Z,90.03
2023-01-29T04:43:29.217Z,90.42
2023-01-29T04:46:10.439Z,89.61
2023-01-29T04:48:50.535Z,90.74
2023-01-29T04:51:25.953Z,90.35
2023-01-29T04:54:00.942Z,91.92
2023-01-29T04:56:37.076Z,92.26
2023-01-29T04:59:08.641Z,92.39
2023-01-29T05:01:38.958Z,92.35
2023-01-29T05:04:09.980Z,93.00
2023-01-29T05:06:40.207Z,94.45
2023-01-29T05:09:09.402Z,95.18
2023-01-29T05:11:38.063Z,95.06
2023-01-29T05:14:08.746Z,95.00
2023-01-29T05:16:42.855Z,95.24
2023-01-29T05:19:11.740Z,95.73
2023-01-29T05:21:44.334Z,96.48
2023-01-29T05:24:14.975Z,97.35
2023-01-29T05:27:01.092Z,98.18
2023-01-29T05:29:28.824Z,98.78
2023-01-29T05:31:56.563Z,99.43
2023-01-29T05:34:24.335Z,99.66
2023-01-29T05:36:53.520Z,100.00
2023-01-29T05:39:21.207Z,100.00
2023-01-29T05:41:49.833Z,100.00
2023-01-29T05:44:17.601Z,100.00
2023-01-29T05:46:46.089Z,100.00
2023-01-29T05:49:13.854Z,100.00
2023-01-29T05:51:41.519Z,100.00
2023-01-29T05:54:12.800Z,100.00
2023-01-29T05:56:40.605Z,100.00
2023-01-29T05:59:08.350Z,100.00
2023-01-29T06:01:35.976Z,100.00
2023-01-29T06:04:03.748Z,100.00
2023-01-29T06:06:31.462Z,100.00
2023-01-29T06:08:59.143Z,100.00
2023-01-29T06:11:28.240Z,100.00
2023-01-29T06:13:55.924Z,100.00
2023-01-29T06:16:23.636Z,100.00
2023-01-29T06:18:51.269Z,100.00
2023-01-29T06:21:20.134Z,100.00
2023-01-29T06:23:47.985Z,100.00
2023-01-29T06:26:16.778Z,100.00
2023-01-29T06:28:46.090Z,100.00
2023-01-29T06:31:36.979Z,100.00
2023-01-29T06:34:01.576Z,100.00
2023-01-29T06:36:29.225Z,100.00
2023-01-29T06:38:57.021Z,100.00
2023-01-29T06:41:25.528Z,100.00
2023-01-29T06:43:54.726Z,100.00
2023-01-29T06:46:22.578Z,100.00
2023-01-29T06:48:50.317Z,100.00
2023-01-29T06:51:18.130Z,100.00
2023-01-29T06:53:46.723Z,100.00
2023-01-29T06:56:14.714Z,100.00
2023-01-29T06:58:43.463Z,100.00
2023-01-29T07:01:25.503Z,100.00
2023-01-29T07:04:00.884Z,100.00
2023-01-29T07:06:29.389Z,100.00
2023-01-29T07:08:57.626Z,100.00
2023-01-29T07:11:25.400Z,100.00
2023-01-29T07:13:53.145Z,100.00
2023-01-29T07:16:22.239Z,100.00
2023-01-29T07:18:50.022Z,100.00
2023-01-29T07:21:17.728Z,100.00
2023-01-29T07:23:45.458Z,100.00
2023-01-29T07:26:13.164Z,100.00
2023-01-29T07:28:41.814Z,100.00
2023-01-29T07:31:12.655Z,100.00
2023-01-29T07:33:41.943Z,100.00
2023-01-29T07:36:10.336Z,100.00
2023-01-29T07:38:38.013Z,100.00
2023-01-29T07:41:05.974Z,100.00
2023-01-29T07:43:33.747Z,100.00
2023-01-29T07:46:03.302Z,100.00
2023-01-29T07:48:31.082Z,100.00
2023-01-29T07:51:00.329Z,100.00
2023-01-29T07:53:29.040Z,100.00
2023-01-29T07:55:57.019Z,100.00
2023-01-29T07:58:24.818Z,100.00
2023-01-29T08:00:52.553Z,100.00
2023-01-29T08:03:21.039Z,100.00
2023-01-29T08:05:49.477Z,100.00
2023-01-29T08:08:19.284Z,100.00
2023-01-29T08:10:46.956Z,100.00
2023-01-29T08:13:14.702Z,100.00
2023-01-29T08:15:45.174Z,100.00
2023-01-29T08:18:13.296Z,100.00
2023-01-29T08:20:41.197Z,100.00
2023-01-29T08:23:13.591Z,100.00
2023-01-29T08:25:43.174Z,100.00
2023-01-29T08:28:11.770Z,100.00
2023-01-29T08:30:39.889Z,100.00
2023-01-29T08:33:07.734Z,100.00
2023-01-29T08:35:35.355Z,100.00
2023-01-29T08:38:04.402Z,100.00
2023-01-29T08:40:33.611Z,100.00
2023-01-29T08:43:06.121Z,100.00
2023-01-29T08:45:37.153Z,100.00
2023-01-29T08:48:05.382Z,100.00
2023-01-29T08:50:34.808Z,100.00
2023-01-29T08:53:03.428Z,100.00
2023-01-29T08:55:31.417Z,100.00
2023-01-29T08:57:59.084Z,100.00
2023-01-29T09:00:28.125Z,100.00
2023-01-29T09:02:55.787Z,100.00
2023-01-29T09:05:23.456Z,100.00
2023-01-29T09:07:52.676Z,100.00
2023-01-29T09:10:21.322Z,100.00
2023-01-29T09:12:49.383Z,100.00
2023-01-29T09:15:17.463Z,100.00
2023-01-29T09:17:46.763Z,100.00
2023-01-29T09:20:14.387Z,100.00
2023-01-29T09:22:42.233Z,100.00
2023-01-29T09:25:10.695Z,100.00
2023-01-29T09:27:38.531Z,100.00
2023-01-29T09:30:07.993Z,100.00
2023-01-29T09:35:25.199Z,100.00
2023-01-29T09:37:53.018Z,100.00
2023-01-29T09:40:27.594Z,100.00
2023-01-29T09:43:02.430Z,100.00
2023-01-29T09:45:31.521Z,100.00
2023-01-29T09:48:01.767Z,100.00
2023-01-29T09:50:36.135Z,100.00
2023-01-29T09:53:12.420Z,100.00
2023-01-29T09:55:46.669Z,100.00
2023-01-29T09:58:22.031Z,100.00
2023-01-29T10:00:59.413Z,100.00
2023-01-29T10:03:46.104Z,100.00
2023-01-29T10:06:26.261Z,100.00
2023-01-29T10:09:34.256Z,100.00
2023-01-29T10:12:16.417Z,100.00
2023-01-29T10:14:54.433Z,100.00
2023-01-29T10:17:40.035Z,100.00
2023-01-29T10:20:28.301Z,100.00
2023-01-29T10:23:10.208Z,100.00
2023-01-29T10:25:42.025Z,100.00
2023-01-29T10:28:18.511Z,100.00
2023-01-29T10:30:50.078Z,100.00
2023-01-29T10:33:23.091Z,100.00
2023-01-29T10:35:56.891Z,100.00
2023-01-29T10:38:36.154Z,100.00
2023-01-29T10:41:18.999Z,100.00
2023-01-29T10:43:59.182Z,100.00
2023-01-29T10:46:39.223Z,100.00
2023-01-29T10:49:21.157Z,100.00
2023-01-29T10:52:04.562Z,100.00
2023-01-29T10:54:48.767Z,100.00
2023-01-29T10:57:27.009Z,100.00
2023-01-29T11:00:07.243Z,100.00
2023-01-29T11:02:35.078Z,100.00
2023-01-29T11:05:02.989Z,100.00
2023-01-29T11:07:31.968Z,100.00
2023-01-29T11:10:08.839Z,100.00
2023-01-29T11:12:39.054Z,100.00
2023-01-29T11:15:15.696Z,100.00
2023-01-29T11:18:02.590Z,100.00
2023-01-29T11:20:32.830Z,99.78
2023-01-29T11:23:00.549Z,99.59
2023-01-29T11:25:32.521Z,98.38
2023-01-29T11:28:01.933Z,98.83
2023-01-29T11:30:32.151Z,97.89
2023-01-29T11:33:08.842Z,98.10
2023-01-29T11:35:37.579Z,97.90
2023-01-29T11:38:18.482Z,98.56
2023-01-29T11:40:47.796Z,96.94
2023-01-29T11:43:24.133Z,96.79
2023-01-29T11:45:53.713Z,95.97
2023-01-29T11:48:23.159Z,94.44
2023-01-29T11:50:56.572Z,95.55
2023-01-29T11:53:34.998Z,94.80
2023-01-29T11:56:16.825Z,94.14
2023-01-29T11:58:46.372Z,93.89
2023-01-29T12:01:16.752Z,92.44
2023-01-29T12:03:49.020Z,91.39
2023-01-29T12:06:21.561Z,91.73
2023-01-29T12:08:56.985Z,91.43
2023-01-29T12:11:31.592Z,91.21
2023-01-29T12:14:01.115Z,91.60
2023-01-29T12:16:33.087Z,90.87
2023-01-29T12:19:11.504Z,90.91
2023-01-29T12:21:47.899Z,91.01
2023-01-29T12:24:30.759Z,90.42
2023-01-29T12:27:08.444Z,89.95
2023-01-29T12:29:46.044Z,89.86
2023-01-29T12:32:28.865Z,89.81
2023-01-29T12:35:02.824Z,89.41
2023-01-29T12:37:39.818Z,89.75
2023-01-29T12:40:13.900Z,89.80
2023-01-29T12:42:47.228Z,88.41
2023-01-29T12:45:19.100Z,88.98
2023-01-29T12:47:51.317Z,88.71
2023-01-29T12:50:23.088Z,89.15
2023-01-29T12:52:55.009Z,89.91
2023-01-29T12:55:26.393Z,89.72
2023-01-29T12:57:59.618Z,89.82
2023-01-29T13:00:30.324Z,89.02
2023-01-29T13:03:05.096Z,88.78
2023-01-29T13:05:40.453Z,89.59
2023-01-29T13:08:15.487Z,88.48
2023-01-29T13:10:47.864Z,88.11
2023-01-29T13:13:23.073Z,88.44
2023-01-29T13:15:50.916Z,89.41
2023-01-29T13:18:34.081Z,89.54
2023-01-29T13:21:02.287Z,89.11
2023-01-29T13:23:35.707Z,88.89
2023-01-29T13:26:03.746Z,88.36
2023-01-29T13:28:33.526Z,88.59
2023-01-29T13:31:14.309Z,89.51
2023-01-29T13:33:44.273Z,88.53
2023-01-29T13:36:17.781Z,88.29
2023-01-29T13:38:46.016Z,89.34
2023-01-29T13:41:15.774Z,88.58
2023-01-29T13:43:50.907Z,88.85
2023-01-29T13:46:21.297Z,89.44
2023-01-29T13:48:51.573Z,88.81
2023-01-29T13:51:22.805Z,90.06
2023-01-29T13:53:57.232Z,88.00
2023-01-29T13:56:45.384Z,88.59
2023-01-29T13:59:25.908Z,89.21
2023-01-29T14:02:04.410Z,89.39
2023-01-29T14:04:34.111Z,90.02
2023-01-29T14:07:04.081Z,91.34
2023-01-29T14:10:14.120Z,90.84
2023-01-29T14:12:46.915Z,91.12
2023-01-29T14:15:25.351Z,90.74
2023-01-29T14:18:05.666Z,91.46
2023-01-29T14:20:45.471Z,92.26
2023-01-29T14:23:22.531Z,91.92
2023-01-29T14:25:50.489Z,92.70
2023-01-29T14:28:23.775Z,93.01
2023-01-29T14:30:53.684Z,94.77
2023-01-29T14:33:33.834Z,95.61
2023-01-29T14:36:06.531Z,95.87
2023-01-29T14:38:35.216Z,96.84
2023-01-29T14:41:14.861Z,96.94
2023-01-29T14:43:42.737Z,96.65
2023-01-29T14:46:46.283Z,97.91
2023-01-29T14:49:35.594Z,98.12
2023-01-29T14:52:03.827Z,98.31
2023-01-29T14:54:34.013Z,99.22
2023-01-29T14:57:07.207Z,99.31
2023-01-29T14:59:38.893Z,99.84
2023-01-29T15:02:18.267Z,100.00
2023-01-29T15:04:50.708Z,100.00
2023-01-29T15:07:29.290Z,100.00
2023-01-29T15:10:21.475Z,100.00
2023-01-29T15:12:53.805Z,100.00
2023-01-29T15:15:32.308Z,100.00
2023-01-29T15:18:06.377Z,100.00
2023-01-29T15:20:36.384Z,100.00
2023-01-29T15:23:06.072Z,100.00
2023-01-29T15:25:37.766Z,100.00
2023-01-29T15:28:10.132Z,100.00
2023-01-29T15:30:38.982Z,100.00
2023-01-29T15:33:11.610Z,100.00
2023-01-29T15:35:41.479Z,100.00
2023-01-29T15:38:17.630Z,100.00
2023-01-29T15:40:53.791Z,100.00
2023-01-29T15:43:23.790Z,100.00
2023-01-29T15:45:52.752Z,100.00
2023-01-29T15:48:29.232Z,100.00
2023-01-29T15:50:58.297Z,100.00
2023-01-29T15:53:32.090Z,100.00
2023-01-29T15:56:00.170Z,100.00
2023-01-29T15:58:32.460Z,100.00
2023-01-29T16:01:01.906Z,100.00
2023-01-29T16:03:33.738Z,100.00
2023-01-29T16:06:02.867Z,100.00
2023-01-29T16:08:30.648Z,100.00
2023-01-29T16:11:01.684Z,100.00
2023-01-29T16:13:31.802Z,100.00
2023-01-29T16:16:01.572Z,100.00
2023-01-29T16:18:35.331Z,100.00
2023-01-29T16:21:08.749Z,100.00
2023-01-29T16:23:41.722Z,100.00
2023-01-29T16:26:13.927Z,100.00
2023-01-29T16:28:42.369Z,100.00
2023-01-29T16:31:11.515Z,100.00
2023-01-29T16:33:43.736Z,100.00
2023-01-29T16:36:17.809Z,100.00
2023-01-29T16:38:48.707Z,100.00
2023-01-29T16:41:28.429Z,100.00
2023-01-29T16:43:58.597Z,100.00
2023-01-29T16:46:32.506Z,100.00
2023-01-29T16:49:02.223Z,100.00
2023-01-29T16:51:31.096Z,100.00
2023-01-29T16:54:07.558Z,100.00
2023-01-29T16:56:36.091Z,100.00
2023-01-29T16:59:06.603Z,100.00
2023-01-29T17:01:36.866Z,100.00
2023-01-29T17:04:11.402Z,100.00
2023-01-29T17:06:42.557Z,100.00
2023-01-29T17:09:22.079Z,100.00
2023-01-29T17:11:55.955Z,100.00
2023-01-29T17:14:24.970Z,100.00
2023-01-29T17:16:56.071Z,100.00
2023-01-29T17:19:25.810Z,100.00
2023-01-29T17:21:53.699Z,100.00
2023-01-29T17:24:21.315Z,100.00
2023-01-29T17:26:49.585Z,100.00
2023-01-29T17:29:20.368Z,100.00
2023-01-29T17:31:48.104Z,100.00
2023-01-29T17:34:18.623Z,100.00
2023-01-29T17:36:47.721Z,100.00
2023-01-29T17:39:18.874Z,100.00
2023-01-29T17:41:48.349Z,100.00
2023-01-29T17:44:16.324Z,100.00
2023-01-29T17:46:44.008Z,100.00
2023-01-29T17:49:22.508Z,100.00
2023-01-29T17:51:51.797Z,100.00
2023-01-29T17:54:19.788Z,100.00
2023-01-29T17:56:47.714Z,100.00
2023-01-29T17:59:16.749Z,100.00
2023-01-29T18:01:44.964Z,100.00
2023-01-29T18:04:12.793Z,100.00
2023-01-29T18:06:42.101Z,100.00
2023-01-29T18:09:14.659Z,100.00
2023-01-29T18:11:42.404Z,100.00
2023-01-29T18:14:14.055Z,100.00
2023-01-29T18:16:43.319Z,100.00
2023-01-29T18:19:15.227Z,100.00
2023-01-29T18:21:42.907Z,100.00
2023-01-29T18:24:11.965Z,100.00
2023-01-29T18:26:39.640Z,100.00
2023-01-29T18:29:07.415Z,100.00
2023-01-29T18:31:35.080Z,100.00
2023-01-29T18:34:02.785Z,100.00
2023-01-29T18:36:30.553Z,100.00
2023-01-29T18:38:58.719Z,100.00
2023-01-29T18:41:27.722Z,100.00
2023-01-29T18:43:55.343Z,100.00
2023-01-29T18:46:24.213Z,99.71
2023-01-29T18:48:51.975Z,99.82
2023-01-29T18:51:19.666Z,99.32
2023-01-29T18:53:50.904Z,99.07
2023-01-29T18:56:19.473Z,99.07
2023-01-29T18:58:52.302Z,98.76
2023-01-29T19:01:23.584Z,98.46
2023-01-29T19:03:52.017Z,98.59
2023-01-29T19:06:19.799Z,98.99
2023-01-29T19:08:47.874Z,98.43
2023-01-29T19:11:15.551Z,98.30
2023-01-29T19:13:43.394Z,97.79
2023-01-29T19:16:14.017Z,98.16
2023-01-29T19:18:41.751Z,97.50
2023-01-29T19:21:11.589Z,97.68
2023-01-29T19:23:39.435Z,97.57
2023-01-29T19:26:07.327Z,97.51
2023-01-29T19:28:34.949Z,97.31
2023-01-29T19:31:02.731Z,97.78
2023-01-29T19:33:32.006Z,97.74
2023-01-29T19:36:00.409Z,97.49
2023-01-29T19:38:28.721Z,97.44
2023-01-29T19:40:56.387Z,97.57
2023-01-29T19:43:24.136Z,97.89
2023-01-29T19:45:59.089Z,98.64
2023-01-29T19:48:27.117Z,98.24
2023-01-29T19:50:57.855Z,98.49
2023-01-29T19:53:26.432Z,98.53
2023-01-29T19:56:01.012Z,98.36
2023-01-29T19:58:29.541Z,98.02
2023-01-29T20:00:58.187Z,97.33
2023-01-29T20:03:26.787Z,97.25
2023-01-29T20:05:56.281Z,96.27
2023-01-29T20:08:24.782Z,96.11
2023-01-29T20:10:52.533Z,95.44
2023-01-29T20:13:20.231Z,94.93
2023-01-29T20:15:49.808Z,94.48
2023-01-29T20:18:18.557Z,94.35
2023-01-29T20:20:47.874Z,93.45
2023-01-29T20:23:31.730Z,93.34
2023-01-29T20:26:05.328Z,92.96
2023-01-29T20:28:32.993Z,93.02
2023-01-29T20:31:00.876Z,93.59
2023-01-29T20:33:29.052Z,93.85
2023-01-29T20:35:57.554Z,93.76
2023-01-29T20:38:31.523Z,94.57
2023-01-29T20:41:04.245Z,94.31
2023-01-29T20:43:32.058Z,94.37
2023-01-29T20:46:00.214Z,93.75
2023-01-29T20:48:27.992Z,93.91
2023-01-29T20:50:55.671Z,94.00
2023-01-29T20:53:23.342Z,94.26
2023-01-29T20:55:52.573Z,95.05
2023-01-29T20:58:20.544Z,94.69
2023-01-29T21:00:48.358Z,95.11
2023-01-29T21:03:16.095Z,95.54
2023-01-29T21:05:43.822Z,95.42
2023-01-29T21:08:11.931Z,95.06
2023-01-29T21:10:40.996Z,95.39
2023-01-29T21:13:10.951Z,94.81
2023-01-29T21:15:38.706Z,94.58
2023-01-29T21:18:07.459Z,94.29
2023-01-29T21:20:59.905Z,93.98
2023-01-29T21:23:27.803Z,94.63
2023-01-29T21:26:01.066Z,94.61
2023-01-29T21:28:30.178Z,94.48
2023-01-29T21:31:04.265Z,94.21
2023-01-29T21:33:32.122Z,93.81
2023-01-29T21:36:00.405Z,94.69
2023-01-29T21:38:28.154Z,93.88
2023-01-29T21:41:00.680Z,94.23
2023-01-29T21:43:28.752Z,94.75
2023-01-29T21:45:57.271Z,94.68
2023-01-29T21:48:25.068Z,94.16
2023-01-29T21:50:53.693Z,94.42
2023-01-29T21:53:21.541Z,94.09
2023-01-29T21:55:49.421Z,94.05
2023-01-29T21:58:17.054Z,94.71
2023-01-29T22:00:48.497Z,94.79
2023-01-29T22:03:16.508Z,94.71
2023-01-29T22:05:44.166Z,94.49
2023-01-29T22:08:11.901Z,94.35
2023-01-29T22:10:39.549Z,94.58
2023-01-29T22:13:07.267Z,94.06
2023-01-29T22:15:35.412Z,94.19
2023-01-29T22:18:04.510Z,94.26
2023-01-29T22:20:32.174Z,94.09
2023-01-29T22:23:00.427Z,93.73
2023-01-29T22:25:28.627Z,93.80
2023-01-29T22:27:56.264Z,93.45
2023-01-29T22:30:24.076Z,93.41
2023-01-29T22:32:52.046Z,93.38
2023-01-29T22:35:21.078Z,93.31
2023-01-29T22:37:48.714Z,93.13
2023-01-29T22:40:16.651Z,92.77
2023-01-29T22:42:44.549Z,93.01
2023-01-29T22:45:12.690Z,92.70
2023-01-29T22:47:40.471Z,92.46
2023-01-29T22:50:09.081Z,92.57
2023-01-29T22:52:39.377Z,92.05
2023-01-29T22:55:09.291Z,92.38
2023-01-29T22:57:37.405Z,92.56
2023-01-29T23:00:08.325Z,91.97
2023-01-29T23:02:36.030Z,91.68
2023-01-29T23:05:03.675Z,91.86
2023-01-29T23:07:31.455Z,91.49
2023-01-29T23:10:00.439Z,91.28
2023-01-29T23:12:28.111Z,91.46
2023-01-29T23:14:55.789Z,90.43
2023-01-29T23:17:23.507Z,89.97
2023-01-29T23:19:51.120Z,89.92
2023-01-29T23:22:18.781Z,89.82
2023-01-29T23:24:46.474Z,89.50
2023-01-29T23:27:14.558Z,89.96
2023-01-29T23:29:42.516Z,89.43
2023-01-29T23:32:10.292Z,89.79
2023-01-29T23:34:37.992Z,89.73
2023-01-29T23:37:05.769Z,89.21
2023-01-29T23:39:33.424Z,89.03
2023-01-29T23:42:01.443Z,89.46
2023-01-29T23:44:30.632Z,89.42
2023-01-29T23:46:59.350Z,89.23
2023-01-29T23:49:27.007Z,89.03
2023-01-29T23:51:54.653Z,89.39
2023-01-29T23:54:22.326Z,89.00
2023-01-29T23:56:50.121Z,88.93
2023-01-29T23:59:18.027Z,88.16
